Time,TemperatureF,DewpointF,PressureIn,WindDirection,WindDirectionDegrees,WindSpeedMPH,WindSpeedGustMPH,Humidity,HourlyPrecipIn,Conditions,Clouds,dailyrainin,SoftwareType,DateUTC
2013-03-25 00:02:00,24.0,20.0,-100.00,West,260,0.0,1.0,83,0.00,,,-99.99,,2013-03-25 04:02:00,
2013-03-25 00:12:00,24.0,20.0,-100.00,SSE,150,0.0,1.0,84,0.00,,,-99.99,,2013-03-25 04:12:00,
2013-03-25 00:22:00,24.0,20.0,-100.00,SW,225,1.0,1.0,85,0.00,,,-99.99,,2013-03-25 04:22:00,
2013-03-25 00:33:00,24.0,20.0,-100.00,SSW,210,0.0,1.0,85,0.00,,,-99.99,,2013-03-25 04:33:00,
2013-03-25 00:43:00,24.0,20.0,-100.00,SW,225,0.0,1.0,85,0.00,,,-99.99,,2013-03-25 04:43:00,
2013-03-25 00:52:00,23.0,20.0,-100.00,SSW,210,0.0,1.0,86,0.00,,,-99.99,,2013-03-25 04:52:00,
2013-03-25 01:03:00,23.0,20.0,-100.00,SSW,210,0.0,1.0,86,0.00,,,-99.99,,2013-03-25 05:03:00,
2013-03-25 01:12:00,23.0,20.0,-100.00,SSW,210,0.0,1.0,86,0.00,,,-99.99,,2013-03-25 05:12:00,
2013-03-25 01:22:00,23.0,20.0,-100.00,SSW,210,0.0,1.0,86,0.00,,,-99.99,,2013-03-25 05:22:00,
2013-03-25 01:32:00,23.0,20.0,-100.00,SSW,210,0.0,1.0,86,0.00,,,-99.99,,2013-03-25 05:32:00,
2013-03-25 03:02:00,21.0,18.0,-100.00,ENE,60,0.0,1.0,90,0.00,,,-99.99,,2013-03-25 07:02:00,
2013-03-25 03:13:00,20.0,18.0,-100.00,West,260,0.0,1.0,90,0.00,,,-99.99,,2013-03-25 07:13:00,
2013-03-25 03:22:00,20.0,18.0,-100.00,West,260,0.0,1.0,91,0.00,,,-99.99,,2013-03-25 07:22:00,
2013-03-25 03:32:00,20.0,18.0,-100.00,West,265,1.0,1.0,91,0.00,,,-99.99,,2013-03-25 07:32:00,
2013-03-25 03:42:00,20.0,18.0,-100.00,WSW,245,1.0,1.0,91,0.00,,,-99.99,,2013-03-25 07:42:00,
2013-03-25 03:52:00,19.0,17.0,-100.00,SSE,165,0.0,1.0,91,0.00,,,-99.99,,2013-03-25 07:52:00,
2013-03-25 04:03:00,19.0,17.0,-100.00,SE,135,0.0,1.0,91,0.00,,,-99.99,,2013-03-25 08:03:00,
2013-03-25 04:23:00,20.0,17.0,-100.00,SW,235,1.0,1.0,91,0.00,,,-99.99,,2013-03-25 08:23:00,
2013-03-25 04:32:00,20.0,18.0,-100.00,SW,225,1.0,1.0,91,0.00,,,-99.99,,2013-03-25 08:32:00,
2013-03-25 04:43:00,19.0,17.0,-100.00,West,270,1.0,1.0,91,0.00,,,-99.99,,2013-03-25 08:43:00,
2013-03-25 04:52:00,19.0,17.0,-100.00,South,180,0.0,1.0,91,0.00,,,-99.99,,2013-03-25 08:52:00,
2013-03-25 05:02:00,18.0,16.0,-100.00,North,355,0.0,0.0,91,0.00,,,-99.99,,2013-03-25 09:02:00,
2013-03-25 05:12:00,18.0,16.0,-100.00,SW,225,1.0,1.0,91,0.00,,,-99.99,,2013-03-25 09:12:00,
2013-03-25 05:22:00,18.0,16.0,-100.00,SSW,200,0.0,1.0,91,0.00,,,-99.99,,2013-03-25 09:22:00,
2013-03-25 05:33:00,18.0,16.0,-100.00,SW,215,0.0,1.0,91,0.00,,,-99.99,,2013-03-25 09:33:00,
2013-03-25 05:43:00,18.0,16.0,-100.00,West,275,1.0,1.0,91,0.00,,,-99.99,,2013-03-25 09:43:00,
2013-03-25 05:52:00,18.0,16.0,-100.00,South,180,0.0,1.0,91,0.00,,,-99.99,,2013-03-25 09:52:00,
2013-03-25 06:03:00,18.0,16.0,-100.00,West,260,0.0,0.0,91,0.00,,,-99.99,,2013-03-25 10:03:00,
2013-03-25 06:12:00,17.0,15.0,-100.00,South,185,0.0,1.0,91,0.00,,,-99.99,,2013-03-25 10:12:00,
2013-03-25 06:22:00,17.0,15.0,-100.00,WSW,240,0.0,1.0,91,0.00,,,-99.99,,2013-03-25 10:22:00,
2013-03-25 06:33:00,17.0,15.0,-100.00,NW,315,1.0,1.0,91,0.00,,,-99.99,,2013-03-25 10:33:00,
2013-03-25 06:42:00,17.0,15.0,-100.00,West,270,0.0,1.0,91,0.00,,,-99.99,,2013-03-25 10:42:00,
2013-03-25 06:53:00,17.0,15.0,-100.00,SW,235,0.0,1.0,91,0.00,,,-99.99,,2013-03-25 10:53:00,
2013-03-25 07:03:00,17.0,15.0,-100.00,SW,225,0.0,1.0,91,0.00,,,-99.99,,2013-03-25 11:03:00,
2013-03-25 07:12:00,17.0,14.0,-100.00,NNW,335,0.0,1.0,91,0.00,,,-99.99,,2013-03-25 11:12:00,
2013-03-25 07:23:00,17.0,15.0,-100.00,WSW,240,0.0,1.0,91,0.00,,,-99.99,,2013-03-25 11:23:00,
2013-03-25 07:32:00,17.0,15.0,-100.00,NNE,25,1.0,1.0,90,0.00,,,-99.99,,2013-03-25 11:32:00,
2013-03-25 07:42:00,20.0,17.0,-100.00,North,0,0.0,1.0,90,0.00,,,-99.99,,2013-03-25 11:42:00,
2013-03-25 07:52:00,20.0,17.0,-100.00,SE,125,0.0,1.0,88,0.00,,,-99.99,,2013-03-25 11:52:00,
2013-03-25 08:03:00,21.0,18.0,-100.00,ENE,70,0.0,1.0,86,0.00,,,-99.99,,2013-03-25 12:03:00,
2013-03-25 08:13:00,21.0,17.0,-100.00,ESE,105,1.0,1.0,85,0.00,,,-99.99,,2013-03-25 12:13:00,
2013-03-25 08:23:00,24.0,18.0,-100.00,SE,135,1.0,1.0,78,0.00,,,-99.99,,2013-03-25 12:23:00,
2013-03-25 08:32:00,24.0,18.0,-100.00,SE,125,1.0,1.0,77,0.00,,,-99.99,,2013-03-25 12:32:00,
2013-03-25 08:42:00,25.0,18.0,-100.00,SSE,160,0.0,1.0,74,0.00,,,-99.99,,2013-03-25 12:42:00,
2013-03-25 08:53:00,25.0,19.0,-100.00,North,10,0.0,1.0,76,0.00,,,-99.99,,2013-03-25 12:53:00,
2013-03-25 09:03:00,26.0,19.0,-100.00,NNW,345,0.0,1.0,73,0.00,,,-99.99,,2013-03-25 13:03:00,
2013-03-25 09:13:00,24.0,18.0,-100.00,ESE,110,1.0,2.0,77,0.00,,,-99.99,,2013-03-25 13:13:00,
2013-03-25 09:22:00,26.0,19.0,-100.00,ENE,75,1.0,2.0,72,0.00,,,-99.99,,2013-03-25 13:22:00,
2013-03-25 09:32:00,26.0,19.0,-100.00,ESE,105,1.0,2.0,73,0.00,,,-99.99,,2013-03-25 13:32:00,
2013-03-25 09:42:00,28.0,20.0,-100.00,NE,55,1.0,1.0,68,0.00,,,-99.99,,2013-03-25 13:42:00,
2013-03-25 09:52:00,29.0,20.0,-100.00,WSW,240,0.0,2.0,67,0.00,,,-99.99,,2013-03-25 13:52:00,
2013-03-25 10:03:00,31.0,20.0,-100.00,NE,55,0.0,1.0,64,0.00,,,-99.99,,2013-03-25 14:03:00,
2013-03-25 10:12:00,32.0,21.0,-100.00,NW,320,0.0,1.0,63,0.00,,,-99.99,,2013-03-25 14:12:00,
2013-03-25 10:22:00,33.0,21.0,-100.00,WSW,240,0.0,1.0,59,0.00,,,-99.99,,2013-03-25 14:22:00,
2013-03-25 10:32:00,35.0,21.0,-100.00,SW,235,0.0,1.0,57,0.00,,,-99.99,,2013-03-25 14:32:00,
2013-03-25 10:42:00,33.0,21.0,-100.00,NNW,330,1.0,2.0,61,0.00,,,-99.99,,2013-03-25 14:42:00,
2013-03-25 10:52:00,35.0,22.0,-100.00,SE,145,1.0,2.0,57,0.00,,,-99.99,,2013-03-25 14:52:00,
2013-03-25 11:03:00,35.0,22.0,-100.00,SE,135,2.0,3.0,58,0.00,,,-99.99,,2013-03-25 15:03:00,
2013-03-25 11:13:00,36.0,22.0,-100.00,NNE,15,2.0,4.0,56,0.00,,,-99.99,,2013-03-25 15:13:00,
2013-03-25 11:23:00,36.0,22.0,-100.00,North,0,2.0,4.0,55,0.00,,,-99.99,,2013-03-25 15:23:00,
2013-03-25 11:33:00,36.0,22.0,-100.00,North,355,2.0,4.0,54,0.00,,,-99.99,,2013-03-25 15:33:00,
2013-03-25 11:42:00,36.0,22.0,-100.00,North,355,2.0,4.0,54,0.00,,,-99.99,,2013-03-25 15:42:00,
2013-03-25 11:53:00,36.0,22.0,-100.00,North,355,2.0,4.0,54,0.00,,,-99.99,,2013-03-25 15:53:00,
2013-03-25 12:03:00,39.0,23.0,-100.00,South,180,1.0,6.0,51,0.00,,,-99.99,,2013-03-25 16:03:00,
2013-03-25 12:12:00,40.0,23.0,-100.00,East,80,1.0,6.0,50,0.00,,,-99.99,,2013-03-25 16:12:00,
2013-03-25 12:23:00,40.0,22.0,-100.00,North,350,0.0,2.0,47,0.00,,,-99.99,,2013-03-25 16:23:00,
2013-03-25 12:33:00,39.0,24.0,-100.00,ENE,70,1.0,7.0,53,0.00,,,-99.99,,2013-03-25 16:33:00,
2013-03-25 12:43:00,39.0,21.0,-100.00,East,95,1.0,4.0,48,0.00,,,-99.99,,2013-03-25 16:43:00,
2013-03-25 12:52:00,41.0,23.0,-100.00,NE,55,1.0,5.0,47,0.00,,,-99.99,,2013-03-25 16:52:00,
2013-03-25 13:02:00,44.0,21.0,-100.00,East,85,1.0,4.0,40,0.00,,,-99.99,,2013-03-25 17:02:00,
2013-03-25 13:12:00,41.0,21.0,-100.00,NE,40,1.0,5.0,45,0.00,,,-99.99,,2013-03-25 17:12:00,
2013-03-25 13:23:00,43.0,23.0,-100.00,SE,145,1.0,4.0,44,0.00,,,-99.99,,2013-03-25 17:23:00,
2013-03-25 13:33:00,41.0,22.0,-100.00,ENE,60,2.0,6.0,47,0.00,,,-99.99,,2013-03-25 17:33:00,
2013-03-25 13:42:00,40.0,24.0,-100.00,ENE,70,2.0,3.0,50,0.00,,,-99.99,,2013-03-25 17:42:00,
2013-03-25 13:52:00,41.0,22.0,-100.00,NE,50,2.0,7.0,45,0.00,,,-99.99,,2013-03-25 17:52:00,
2013-03-25 14:03:00,40.0,24.0,-100.00,East,90,2.0,7.0,52,0.00,,,-99.99,,2013-03-25 18:03:00,
2013-03-25 14:12:00,40.0,21.0,-100.00,East,90,2.0,9.0,46,0.00,,,-99.99,,2013-03-25 18:12:00,
2013-03-25 14:23:00,40.0,22.0,-100.00,ENE,70,2.0,6.0,47,0.00,,,-99.99,,2013-03-25 18:23:00,
2013-03-25 14:33:00,41.0,21.0,-100.00,East,85,4.0,9.0,44,0.00,,,-99.99,,2013-03-25 18:33:00,
2013-03-25 14:42:00,40.0,20.0,-100.00,ENE,75,4.0,11.0,42,0.00,,,-99.99,,2013-03-25 18:42:00,
2013-03-25 14:52:00,40.0,21.0,-100.00,ENE,70,3.0,9.0,45,0.00,,,-99.99,,2013-03-25 18:52:00,
2013-03-25 15:03:00,41.0,22.0,-100.00,East,80,2.0,6.0,46,0.00,,,-99.99,,2013-03-25 19:03:00,
2013-03-25 15:13:00,41.0,21.0,-100.00,East,85,2.0,11.0,43,0.00,,,-99.99,,2013-03-25 19:13:00,
2013-03-25 15:23:00,41.0,22.0,-100.00,East,85,2.0,7.0,44,0.00,,,-99.99,,2013-03-25 19:23:00,
2013-03-25 15:33:00,41.0,22.0,-100.00,ESE,105,3.0,11.0,46,0.00,,,-99.99,,2013-03-25 19:33:00,
2013-03-25 15:42:00,42.0,20.0,-100.00,East,85,2.0,6.0,40,0.00,,,-99.99,,2013-03-25 19:42:00,
2013-03-25 15:52:00,42.0,21.0,-100.00,ENE,70,3.0,7.0,43,0.00,,,-99.99,,2013-03-25 19:52:00,
2013-03-25 16:02:00,42.0,21.0,-100.00,East,90,1.0,6.0,43,0.00,,,-99.99,,2013-03-25 20:02:00,
2013-03-25 16:12:00,41.0,24.0,-100.00,East,85,1.0,3.0,50,0.00,,,-99.99,,2013-03-25 20:12:00,
2013-03-25 16:22:00,40.0,22.0,-100.00,East,80,4.0,8.0,48,0.00,,,-99.99,,2013-03-25 20:22:00,
2013-03-25 16:32:00,41.0,20.0,-100.00,East,100,7.0,12.0,41,0.00,,,-99.99,,2013-03-25 20:32:00,
2013-03-25 16:42:00,41.0,20.0,-100.00,East,90,6.0,10.0,42,0.00,,,-99.99,,2013-03-25 20:42:00,
2013-03-25 16:52:00,41.0,20.0,-100.00,ESE,110,6.0,10.0,41,0.00,,,-99.99,,2013-03-25 20:52:00,
2013-03-25 17:02:00,41.0,19.0,-100.00,ESE,115,5.0,12.0,40,0.00,,,-99.99,,2013-03-25 21:02:00,
2013-03-25 17:12:00,41.0,22.0,-100.00,NE,45,2.0,7.0,44,0.00,,,-99.99,,2013-03-25 21:12:00,
2013-03-25 17:22:00,40.0,24.0,-100.00,East,85,1.0,11.0,52,0.00,,,-99.99,,2013-03-25 21:22:00,
2013-03-25 17:33:00,39.0,25.0,-100.00,East,90,1.0,9.0,57,0.00,,,-99.99,,2013-03-25 21:33:00,
2013-03-25 17:43:00,40.0,22.0,-100.00,East,95,1.0,6.0,48,0.00,,,-99.99,,2013-03-25 21:43:00,
2013-03-25 17:52:00,39.0,24.0,-100.00,ENE,70,1.0,2.0,56,0.00,,,-99.99,,2013-03-25 21:52:00,
2013-03-25 18:03:00,38.0,24.0,-100.00,ENE,70,2.0,6.0,55,0.00,,,-99.99,,2013-03-25 22:03:00,
2013-03-25 18:12:00,38.0,24.0,-100.00,East,85,2.0,7.0,56,0.00,,,-99.99,,2013-03-25 22:12:00,
2013-03-25 18:23:00,38.0,24.0,-100.00,East,80,2.0,6.0,56,0.00,,,-99.99,,2013-03-25 22:23:00,
2013-03-25 18:33:00,38.0,24.0,-100.00,ESE,115,1.0,4.0,57,0.00,,,-99.99,,2013-03-25 22:33:00,
2013-03-25 18:42:00,38.0,24.0,-100.00,East,95,1.0,2.0,57,0.00,,,-99.99,,2013-03-25 22:42:00,
2013-03-25 18:52:00,38.0,24.0,-100.00,NNE,30,0.0,3.0,58,0.00,,,-99.99,,2013-03-25 22:52:00,
2013-03-25 19:03:00,38.0,24.0,-100.00,East,100,0.0,2.0,57,0.00,,,-99.99,,2013-03-25 23:03:00,
2013-03-25 19:12:00,36.0,25.0,-100.00,East,95,0.0,1.0,62,0.00,,,-99.99,,2013-03-25 23:12:00,
2013-03-25 19:23:00,37.0,25.0,-100.00,West,280,1.0,2.0,61,0.00,,,-99.99,,2013-03-25 23:23:00,
2013-03-25 19:32:00,36.0,24.0,-100.00,NW,310,0.0,1.0,61,0.00,,,-99.99,,2013-03-25 23:32:00,
2013-03-25 19:43:00,35.0,24.0,-100.00,SW,230,1.0,1.0,63,0.00,,,-99.99,,2013-03-25 23:43:00,
2013-03-25 19:52:00,35.0,23.0,-100.00,NW,320,0.0,1.0,62,0.00,,,-99.99,,2013-03-25 23:52:00,
2013-03-25 20:02:00,35.0,24.0,-100.00,WNW,285,0.0,1.0,65,0.00,,,-99.99,,2013-03-26 00:02:00,
2013-03-25 20:12:00,34.0,23.0,-100.00,North,0,0.0,1.0,62,0.00,,,-99.99,,2013-03-26 00:12:00,
2013-03-25 20:22:00,34.0,24.0,-100.00,WNW,285,1.0,1.0,64,0.00,,,-99.99,,2013-03-26 00:22:00,
2013-03-25 20:32:00,34.0,23.0,-100.00,North,355,0.0,1.0,61,0.00,,,-99.99,,2013-03-26 00:32:00,
2013-03-25 20:42:00,34.0,24.0,-100.00,NW,315,1.0,1.0,64,0.00,,,-99.99,,2013-03-26 00:42:00,
2013-03-25 20:52:00,34.0,24.0,-100.00,NW,305,0.0,1.0,66,0.00,,,-99.99,,2013-03-26 00:52:00,
2013-03-25 21:02:00,34.0,24.0,-100.00,West,280,1.0,1.0,66,0.00,,,-99.99,,2013-03-26 01:02:00,
2013-03-25 21:12:00,34.0,24.0,-100.00,WNW,300,1.0,1.0,68,0.00,,,-99.99,,2013-03-26 01:12:00,
2013-03-25 21:22:00,33.0,24.0,-100.00,NW,325,1.0,2.0,66,0.00,,,-99.99,,2013-03-26 01:22:00,
2013-03-25 21:32:00,34.0,24.0,-100.00,North,0,1.0,2.0,68,0.00,,,-99.99,,2013-03-26 01:32:00,
2013-03-25 21:42:00,33.0,24.0,-100.00,NNW,345,1.0,2.0,69,0.00,,,-99.99,,2013-03-26 01:42:00,
2013-03-25 21:52:00,33.0,24.0,-100.00,ENE,65,0.0,1.0,68,0.00,,,-99.99,,2013-03-26 01:52:00,
2013-03-25 22:02:00,33.0,24.0,-100.00,NNE,25,0.0,1.0,69,0.00,,,-99.99,,2013-03-26 02:02:00,
2013-03-25 22:12:00,33.0,25.0,-100.00,NNE,15,1.0,2.0,70,0.00,,,-99.99,,2013-03-26 02:12:00,
2013-03-25 22:22:00,33.0,25.0,-100.00,NNW,340,2.0,2.0,71,0.00,,,-99.99,,2013-03-26 02:22:00,
2013-03-25 22:32:00,33.0,25.0,-100.00,WNW,300,1.0,2.0,71,0.00,,,-99.99,,2013-03-26 02:32:00,
2013-03-25 22:42:00,33.0,25.0,-100.00,North,0,1.0,2.0,72,0.00,,,-99.99,,2013-03-26 02:42:00,
2013-03-25 22:52:00,33.0,25.0,-100.00,NNW,345,1.0,2.0,73,0.00,,,-99.99,,2013-03-26 02:52:00,
2013-03-25 23:02:00,33.0,24.0,-100.00,East,90,1.0,2.0,70,0.00,,,-99.99,,2013-03-26 03:02:00,
2013-03-25 23:12:00,34.0,23.0,-100.00,East,85,2.0,5.0,63,0.00,,,-99.99,,2013-03-26 03:12:00,
2013-03-25 23:22:00,34.0,24.0,-100.00,East,95,2.0,4.0,65,0.00,,,-99.99,,2013-03-26 03:22:00,
2013-03-25 23:33:00,35.0,23.0,-100.00,East,100,4.0,7.0,60,0.00,,,-99.99,,2013-03-26 03:33:00,
2013-03-25 23:42:00,35.0,22.0,-100.00,ESE,110,6.0,9.0,58,0.00,,,-99.99,,2013-03-26 03:42:00,
2013-03-25 23:52:00,35.0,23.0,-100.00,ESE,115,6.0,12.0,59,0.00,,,-99.99,,2013-03-26 03:52:00,